Time;durP1;ratioP1;P1;durP2;ratioP2;P2;SDS_P1;SDS_P2;PMS_P1;PMS_P2;Temp;Humidity;BMP_temperature;BMP_pressure;BME280_temperature;BME280_humidity;BME280_pressure;Samples;Min_cycle;Max_cycle;Signal;HPM_P1;HPM_P2
2020/12/12 00:02:17;;;;;;;6.63;5.13;;;4.90;99.90;;;;;;5076787;28;21012;-70
2020/12/12 00:04:43;;;;;;;8.57;5.00;;;5.00;99.90;;;;;;5077479;28;20453;-68
2020/12/12 00:07:10;;;;;;;8.57;4.63;;;5.00;99.90;;;;;;5073911;28;20481;-70
2020/12/12 00:09:37;;;;;;;6.80;5.47;;;5.00;99.90;;;;;;5082098;28;20480;-71
2020/12/12 00:12:05;;;;;;;7.87;5.87;;;5.00;99.90;;;;;;5074537;28;20445;-71
2020/12/12 00:14:32;;;;;;;7.47;5.10;;;4.90;99.90;;;;;;5072174;28;20468;-71
2020/12/12 00:16:59;;;;;;;7.37;5.20;;;5.10;99.90;;;;;;5075515;28;20503;-71
2020/12/12 00:19:25;;;;;;;6.03;4.87;;;5.10;99.90;;;;;;5081244;28;20541;-71
2020/12/12 00:21:52;;;;;;;5.83;4.83;;;5.00;99.90;;;;;;5077099;28;20501;-70
2020/12/12 00:24:19;;;;;;;5.10;4.60;;;5.10;99.90;;;;;;5074822;28;20536;-70
2020/12/12 00:26:46;;;;;;;6.63;5.70;;;5.00;99.90;;;;;;5077663;28;20530;-71
2020/12/12 00:29:13;;;;;;;8.20;5.20;;;5.10;99.90;;;;;;5087999;28;20572;-71
2020/12/12 00:31:40;;;;;;;8.00;6.77;;;5.10;99.90;;;;;;5077557;28;21035;-71
2020/12/12 00:34:07;;;;;;;6.47;5.27;;;5.10;99.90;;;;;;5073868;28;20540;-70
2020/12/12 00:36:38;;;;;;;6.20;5.20;;;5.10;99.90;;;;;;5069242;28;20481;-70
2020/12/12 00:39:05;;;;;;;6.43;5.33;;;5.20;99.90;;;;;;5068165;28;20524;-71
2020/12/12 00:41:35;;;;;;;6.43;4.80;;;5.20;99.90;;;;;;5073629;28;20538;-70
2020/12/12 00:44:01;;;;;;;6.60;4.90;;;5.20;99.90;;;;;;5082097;28;20437;-70
2020/12/12 00:46:28;;;;;;;6.63;4.97;;;5.20;99.90;;;;;;5080934;28;20449;-70
2020/12/12 00:48:54;;;;;;;6.30;4.83;;;5.40;99.90;;;;;;5072735;28;20485;-70
2020/12/12 00:51:22;;;;;;;5.33;4.40;;;5.50;99.90;;;;;;5074231;28;20552;-70
2020/12/12 00:53:48;;;;;;;7.43;5.73;;;5.50;99.90;;;;;;5076995;28;20532;-70
2020/12/12 00:56:14;;;;;;;5.60;5.00;;;5.60;99.90;;;;;;5078347;28;20457;-71
2020/12/12 00:58:41;;;;;;;6.07;5.20;;;5.50;99.90;;;;;;5069828;28;20536;-70
2020/12/12 01:01:08;;;;;;;6.70;4.57;;;5.60;99.90;;;;;;5068733;28;20463;-70
2020/12/12 01:03:35;;;;;;;5.43;4.50;;;5.70;99.90;;;;;;5081183;28;20543;-71
2020/12/12 01:06:01;;;;;;;10.53;4.50;;;5.80;99.90;;;;;;5074148;28;20483;-70
2020/12/12 01:08:28;;;;;;;5.33;4.67;;;5.80;99.90;;;;;;5077055;28;20843;-70
2020/12/12 01:10:55;;;;;;;6.20;4.60;;;5.90;99.90;;;;;;5078705;28;20580;-70
2020/12/12 01:13:21;;;;;;;5.40;4.40;;;5.90;99.90;;;;;;5067178;28;20449;-70
2020/12/12 01:15:48;;;;;;;5.20;3.90;;;5.90;99.90;;;;;;5069639;28;20524;-70
2020/12/12 01:18:14;;;;;;;5.60;4.20;;;5.90;99.90;;;;;;5080479;28;20564;-70
2020/12/12 01:20:41;;;;;;;7.30;5.50;;;5.90;99.90;;;;;;5071229;28;20456;-70
2020/12/12 01:23:07;;;;;;;5.13;3.97;;;5.90;99.90;;;;;;5080744;28;20876;-70
2020/12/12 01:25:37;;;;;;;5.73;4.50;;;6.00;99.90;;;;;;5074697;28;20462;-71
2020/12/12 01:28:04;;;;;;;6.30;4.37;;;6.00;99.90;;;;;;5081933;28;20480;-70
2020/12/12 01:30:31;;;;;;;6.20;4.20;;;5.90;99.90;;;;;;5085204;28;20531;-70
2020/12/12 01:32:57;;;;;;;6.50;4.97;;;6.00;99.90;;;;;;5071814;28;20521;-70
2020/12/12 01:35:23;;;;;;;7.80;5.20;;;6.00;99.90;;;;;;5077415;28;20540;-70
2020/12/12 01:37:50;;;;;;;3.90;3.50;;;5.90;99.90;;;;;;5081451;28;20451;-70
2020/12/12 01:40:17;;;;;;;5.70;4.33;;;5.90;99.90;;;;;;5075236;28;20448;-70
2020/12/12 01:42:45;;;;;;;6.27;4.63;;;5.90;99.90;;;;;;5073339;28;20485;-69
2020/12/12 01:45:11;;;;;;;5.93;4.07;;;5.90;99.90;;;;;;5072447;28;20540;-70
2020/12/12 01:47:39;;;;;;;8.80;5.07;;;5.90;99.90;;;;;;5077091;28;20568;-70
2020/12/12 01:50:07;;;;;;;5.77;4.37;;;6.00;99.90;;;;;;5070951;28;20488;-70
2020/12/12 01:52:34;;;;;;;5.40;4.57;;;5.90;99.90;;;;;;5075512;28;20449;-70
2020/12/12 01:55:01;;;;;;;5.17;4.40;;;5.80;99.90;;;;;;5081313;28;20527;-69
2020/12/12 01:57:28;;;;;;;9.30;6.50;;;5.90;99.90;;;;;;5078874;28;20530;-70
2020/12/12 01:59:55;;;;;;;6.87;4.13;;;5.80;99.90;;;;;;5067351;28;20449;-70
2020/12/12 02:02:22;;;;;;;6.40;5.10;;;5.70;99.90;;;;;;5068970;28;20468;-70
2020/12/12 02:04:51;;;;;;;5.20;4.70;;;5.70;99.90;;;;;;5072146;28;20445;-70
2020/12/12 02:07:19;;;;;;;7.07;5.30;;;5.60;99.90;;;;;;5072222;28;20481;-70
2020/12/12 02:09:46;;;;;;;6.90;4.50;;;5.60;99.90;;;;;;5078285;28;20495;-70
2020/12/12 02:12:13;;;;;;;6.20;4.13;;;5.70;99.90;;;;;;5069231;28;21118;-70
2020/12/12 02:14:40;;;;;;;7.20;4.80;;;5.80;99.90;;;;;;5078869;28;20548;-70
2020/12/12 02:17:08;;;;;;;5.80;4.20;;;5.70;99.90;;;;;;5079723;28;20529;-70
2020/12/12 02:19:35;;;;;;;6.03;4.10;;;5.60;99.90;;;;;;5094584;28;20444;-71
2020/12/12 02:22:04;;;;;;;6.30;4.57;;;5.60;99.90;;;;;;5094528;28;20445;-71
2020/12/12 02:24:33;;;;;;;3.73;3.40;;;5.60;99.90;;;;;;5081287;28;20451;-71
2020/12/12 02:27:01;;;;;;;5.33;4.17;;;5.60;99.90;;;;;;5073865;28;20863;-71
2020/12/12 02:29:38;;;;;;;5.30;3.97;;;5.50;99.90;;;;;;5074637;28;21055;-71
2020/12/12 02:32:05;;;;;;;5.33;4.10;;;5.50;99.90;;;;;;5073714;28;20445;-71
2020/12/12 02:34:31;;;;;;;5.43;4.67;;;5.40;99.90;;;;;;5074052;28;20537;-71
2020/12/12 02:36:58;;;;;;;6.50;3.90;;;5.50;99.90;;;;;;5073703;28;20850;-71
2020/12/12 02:39:25;;;;;;;5.00;3.90;;;5.50;99.90;;;;;;5074488;28;20449;-71
2020/12/12 02:41:51;;;;;;;6.83;4.57;;;5.70;99.90;;;;;;5073472;28;20527;-70
2020/12/12 02:44:18;;;;;;;5.23;3.60;;;5.70;99.90;;;;;;5074105;28;20503;-71
2020/12/12 02:46:44;;;;;;;5.67;3.93;;;5.80;99.90;;;;;;5074482;28;20529;-69
2020/12/12 02:49:11;;;;;;;5.63;4.80;;;6.00;99.90;;;;;;5074024;28;20477;-71
2020/12/12 02:51:39;;;;;;;6.67;4.40;;;6.00;99.90;;;;;;5074052;28;20540;-71
2020/12/12 02:54:06;;;;;;;7.23;4.30;;;6.00;99.90;;;;;;5073508;28;20528;-71
2020/12/12 02:56:33;;;;;;;5.03;4.17;;;5.90;99.90;;;;;;5074325;28;20524;-71
2020/12/12 02:58:59;;;;;;;5.50;4.50;;;5.80;99.90;;;;;;5073129;28;20520;-70
2020/12/12 03:01:26;;;;;;;6.47;4.40;;;5.80;99.90;;;;;;5073068;28;21033;-71
2020/12/12 03:03:52;;;;;;;8.60;4.67;;;5.80;99.90;;;;;;5073069;28;20864;-71
2020/12/12 03:06:19;;;;;;;5.23;4.20;;;5.70;99.90;;;;;;5077506;28;20571;-71
2020/12/12 03:08:45;;;;;;;5.77;3.93;;;5.60;99.90;;;;;;5080678;28;20615;-69
2020/12/12 03:11:12;;;;;;;4.47;3.37;;;5.60;99.90;;;;;;5073550;28;20540;-71
2020/12/12 03:13:39;;;;;;;8.33;4.03;;;5.60;99.90;;;;;;5073620;28;20611;-71
2020/12/12 03:16:05;;;;;;;5.53;3.73;;;5.60;99.90;;;;;;5072644;28;20646;-71
2020/12/12 03:18:32;;;;;;;7.00;4.50;;;5.70;99.90;;;;;;5073341;28;20541;-71
2020/12/12 03:20:58;;;;;;;6.20;4.37;;;5.70;99.90;;;;;;5072991;28;20816;-71
2020/12/12 03:23:25;;;;;;;5.53;3.90;;;5.70;99.90;;;;;;5073301;28;20446;-71
2020/12/12 03:25:51;;;;;;;5.97;4.67;;;5.60;99.90;;;;;;5072516;28;20536;-71
2020/12/12 03:28:17;;;;;;;5.33;4.47;;;5.70;99.90;;;;;;5072475;28;20914;-71
2020/12/12 03:30:45;;;;;;;5.83;3.90;;;5.70;99.90;;;;;;5073875;28;20449;-71
2020/12/12 03:33:11;;;;;;;5.07;4.40;;;5.60;99.90;;;;;;5072878;28;20838;-71
2020/12/12 03:35:38;;;;;;;6.13;4.20;;;5.60;99.90;;;;;;5073533;28;20536;-71
2020/12/12 03:38:04;;;;;;;5.20;4.70;;;5.50;99.90;;;;;;5073089;28;20524;-71
2020/12/12 03:40:31;;;;;;;5.30;4.00;;;5.50;99.90;;;;;;5073279;28;21064;-71
2020/12/12 03:42:57;;;;;;;4.90;4.37;;;5.70;99.90;;;;;;5072321;28;20516;-71
2020/12/12 03:45:23;;;;;;;6.30;4.17;;;5.50;99.90;;;;;;5073066;28;20456;-71
2020/12/12 03:47:50;;;;;;;6.43;4.10;;;5.50;99.90;;;;;;5072663;28;20532;-70
2020/12/12 03:50:17;;;;;;;6.60;4.83;;;5.50;99.90;;;;;;5072697;28;20485;-70
2020/12/12 03:52:43;;;;;;;6.40;4.50;;;5.50;99.90;;;;;;5073583;28;20458;-70
2020/12/12 03:55:10;;;;;;;7.63;4.13;;;5.50;99.90;;;;;;5071784;28;20964;-71
2020/12/12 03:57:36;;;;;;;4.97;3.80;;;5.50;99.90;;;;;;5073187;28;20532;-71
2020/12/12 04:00:05;;;;;;;4.93;4.23;;;5.60;99.90;;;;;;5071686;28;20596;-71
2020/12/12 04:02:31;;;;;;;6.30;4.67;;;5.60;99.90;;;;;;5072907;28;20532;-70
2020/12/12 04:04:58;;;;;;;7.67;4.00;;;5.50;99.90;;;;;;5071791;28;20845;-70
2020/12/12 04:07:25;;;;;;;6.57;4.47;;;5.40;99.90;;;;;;5072292;28;20475;-70
2020/12/12 04:09:51;;;;;;;7.17;4.40;;;5.50;99.90;;;;;;5071773;28;21024;-70
2020/12/12 04:12:17;;;;;;;6.37;4.20;;;5.50;99.90;;;;;;5072821;28;20933;-72
2020/12/12 04:14:44;;;;;;;7.07;5.30;;;5.50;99.90;;;;;;5072096;28;20524;-72
2020/12/12 04:17:10;;;;;;;7.10;4.87;;;5.70;99.90;;;;;;5072099;28;20553;-72
2020/12/12 04:19:36;;;;;;;6.10;4.77;;;5.80;99.90;;;;;;5072716;28;20453;-72
2020/12/12 04:22:04;;;;;;;6.23;4.93;;;5.80;99.90;;;;;;5071769;28;20532;-71
2020/12/12 04:24:30;;;;;;;5.43;3.70;;;5.70;99.90;;;;;;5071788;28;20532;-72
2020/12/12 04:26:57;;;;;;;7.00;4.00;;;5.60;99.90;;;;;;5071408;28;20627;-72
2020/12/12 04:29:23;;;;;;;9.10;4.60;;;5.70;99.90;;;;;;5072110;28;20903;-72
2020/12/12 04:31:50;;;;;;;6.47;4.33;;;5.60;99.90;;;;;;5071826;28;20827;-71
2020/12/12 04:34:16;;;;;;;7.17;4.70;;;5.60;99.90;;;;;;5072359;28;20528;-72
2020/12/12 04:36:43;;;;;;;10.27;5.60;;;5.60;99.90;;;;;;5072507;28;20473;-72
2020/12/12 04:39:10;;;;;;;5.20;4.20;;;5.50;99.90;;;;;;5070518;28;20532;-72
2020/12/12 04:41:41;;;;;;;4.87;4.20;;;5.60;99.90;;;;;;5071756;28;20474;-72
2020/12/12 04:44:07;;;;;;;7.47;5.50;;;5.60;99.90;;;;;;5071493;28;20520;-72
2020/12/12 04:46:37;;;;;;;7.00;5.13;;;5.70;99.90;;;;;;5072132;28;20532;-72
2020/12/12 04:49:03;;;;;;;5.77;4.20;;;5.60;99.90;;;;;;5071561;28;20564;-71
2020/12/12 04:51:31;;;;;;;5.97;4.50;;;5.60;99.90;;;;;;5069983;28;20449;-71
2020/12/12 04:53:58;;;;;;;6.70;4.40;;;5.60;99.90;;;;;;5070899;28;20544;-71
2020/12/12 04:56:26;;;;;;;7.70;4.40;;;5.60;99.90;;;;;;5074524;28;20524;-72
2020/12/12 04:58:53;;;;;;;7.27;5.07;;;5.70;99.90;;;;;;5082594;28;20511;-70
2020/12/12 05:01:20;;;;;;;6.13;4.90;;;5.70;99.90;;;;;;5071395;28;20532;-71
2020/12/12 05:03:47;;;;;;;6.43;4.60;;;5.70;99.90;;;;;;5071509;28;20525;-71
2020/12/12 05:06:14;;;;;;;5.40;3.57;;;5.60;99.90;;;;;;5071115;28;20499;-71
2020/12/12 05:08:40;;;;;;;9.73;5.00;;;5.50;99.90;;;;;;5071249;28;20931;-71
2020/12/12 05:11:07;;;;;;;8.00;5.40;;;5.60;99.90;;;;;;5070926;28;20537;-71
2020/12/12 05:13:34;;;;;;;5.70;4.10;;;5.70;99.90;;;;;;5071112;28;20930;-71
2020/12/12 05:16:02;;;;;;;6.90;4.93;;;5.70;99.90;;;;;;5070453;28;20521;-71
2020/12/12 05:18:28;;;;;;;6.80;5.30;;;5.70;99.90;;;;;;5071416;28;20537;-71
2020/12/12 05:20:55;;;;;;;6.40;4.97;;;5.60;99.90;;;;;;5071013;28;20541;-70
2020/12/12 05:23:23;;;;;;;6.67;5.10;;;5.60;99.90;;;;;;5071165;28;20453;-71
2020/12/12 05:25:51;;;;;;;9.23;4.90;;;5.60;99.90;;;;;;5070601;28;20453;-70
2020/12/12 05:28:20;;;;;;;5.60;4.37;;;5.50;99.90;;;;;;5071243;28;20537;-71
2020/12/12 05:30:49;;;;;;;7.37;5.97;;;5.50;99.90;;;;;;5071467;28;20812;-70
2020/12/12 05:33:17;;;;;;;6.37;4.90;;;5.50;99.90;;;;;;5067149;28;20458;-71
2020/12/12 05:35:44;;;;;;;6.43;4.67;;;5.60;99.90;;;;;;5071007;28;21033;-71
2020/12/12 05:38:11;;;;;;;5.67;4.10;;;5.50;99.90;;;;;;5070668;28;20449;-71
2020/12/12 05:40:38;;;;;;;6.17;5.07;;;5.50;99.90;;;;;;5071373;28;20500;-71
2020/12/12 05:43:06;;;;;;;6.33;4.60;;;5.50;99.90;;;;;;5070095;28;20532;-71
2020/12/12 05:45:33;;;;;;;6.70;4.63;;;5.50;99.90;;;;;;5071599;28;20525;-71
2020/12/12 05:48:01;;;;;;;6.27;4.60;;;5.50;99.90;;;;;;5070752;28;20528;-70
2020/12/12 05:50:27;;;;;;;5.43;4.23;;;5.50;99.90;;;;;;5070331;28;20512;-70
2020/12/12 05:52:55;;;;;;;6.83;5.03;;;5.50;99.90;;;;;;5070420;28;20460;-70
2020/12/12 05:55:22;;;;;;;8.90;4.30;;;5.50;99.90;;;;;;5071505;28;20540;-70
2020/12/12 05:57:52;;;;;;;8.03;4.63;;;5.50;99.90;;;;;;5070324;28;20445;-69
2020/12/12 06:00:20;;;;;;;5.80;4.40;;;5.60;99.90;;;;;;5077701;28;20438;-70
2020/12/12 06:02:53;;;;;;;7.23;5.37;;;5.50;99.90;;;;;;5071155;28;20442;-70
2020/12/12 06:05:25;;;;;;;7.17;4.93;;;5.50;99.90;;;;;;5070770;28;20434;-70
2020/12/12 06:07:54;;;;;;;6.10;4.67;;;5.60;99.90;;;;;;5070353;28;20473;-72
2020/12/12 06:10:27;;;;;;;6.73;5.10;;;5.70;99.90;;;;;;5070530;28;20946;-70
2020/12/12 06:13:01;;;;;;;8.60;4.97;;;5.60;99.90;;;;;;5070035;28;20867;-70
2020/12/12 06:15:39;;;;;;;6.90;4.80;;;5.70;99.90;;;;;;5070666;28;20443;-70
2020/12/12 06:18:26;;;;;;;6.17;4.83;;;5.70;99.90;;;;;;5070697;28;20488;-72
2020/12/12 06:20:55;;;;;;;9.57;5.20;;;5.70;99.90;;;;;;5067091;28;20437;-70
2020/12/12 06:23:21;;;;;;;7.63;4.17;;;5.70;99.90;;;;;;5070906;28;20449;-70
2020/12/12 06:25:48;;;;;;;7.53;4.77;;;5.70;99.90;;;;;;5070809;28;20532;-70
2020/12/12 06:28:19;;;;;;;5.60;4.20;;;5.70;99.90;;;;;;5071124;28;20969;-70
2020/12/12 06:30:46;;;;;;;7.37;4.37;;;5.60;99.90;;;;;;5070651;28;20453;-70
2020/12/12 06:33:12;;;;;;;5.90;4.80;;;5.60;99.90;;;;;;5069680;28;20530;-71
2020/12/12 06:35:39;;;;;;;5.80;4.47;;;5.60;99.90;;;;;;5070450;28;20477;-70
2020/12/12 06:38:22;;;;;;;5.80;4.77;;;5.60;99.90;;;;;;5069913;28;20472;-70
2020/12/12 06:40:49;;;;;;;6.60;5.03;;;5.60;99.90;;;;;;5070069;28;20441;-68
2020/12/12 06:43:31;;;;;;;7.67;4.47;;;5.60;99.90;;;;;;5070485;28;20476;-70
2020/12/12 06:45:59;;;;;;;5.87;4.80;;;5.70;99.90;;;;;;5069976;28;20437;-70
2020/12/12 06:48:26;;;;;;;8.10;5.50;;;5.70;99.90;;;;;;5070696;28;20524;-70
2020/12/12 06:50:53;;;;;;;6.60;5.00;;;5.70;99.90;;;;;;5069502;28;20969;-70
2020/12/12 06:53:22;;;;;;;7.23;5.33;;;5.80;99.90;;;;;;5069870;28;20530;-70
2020/12/12 06:56:09;;;;;;;9.60;5.80;;;5.90;99.90;;;;;;5069862;28;20442;-68
2020/12/12 06:58:36;;;;;;;7.33;5.23;;;5.80;99.90;;;;;;5069618;28;20536;-71
2020/12/12 07:01:29;;;;;;;5.80;4.27;;;5.90;99.90;;;;;;5069950;28;20520;-70
2020/12/12 07:04:00;;;;;;;5.23;4.13;;;6.00;99.90;;;;;;5072940;28;20532;-71
2020/12/12 07:06:28;;;;;;;6.43;4.80;;;6.00;99.90;;;;;;5074104;28;20564;-71
2020/12/12 07:09:00;;;;;;;5.00;4.23;;;5.80;99.90;;;;;;5073084;28;20481;-73
2020/12/12 07:11:27;;;;;;;6.27;4.50;;;5.80;99.90;;;;;;5074285;28;20822;-70
2020/12/12 07:13:54;;;;;;;5.03;4.47;;;5.80;99.90;;;;;;5072943;28;20532;-70
2020/12/12 07:16:20;;;;;;;5.73;4.57;;;5.90;99.90;;;;;;5073841;28;20785;-70
2020/12/12 07:18:49;;;;;;;8.60;6.40;;;6.10;99.90;;;;;;5073338;28;21040;-71
2020/12/12 07:21:15;;;;;;;7.60;5.07;;;6.00;99.90;;;;;;5073872;28;20481;-72
2020/12/12 07:23:42;;;;;;;8.30;4.70;;;5.90;99.90;;;;;;5067549;28;21007;-72
2020/12/12 07:26:09;;;;;;;5.83;4.50;;;5.90;99.90;;;;;;5070482;28;20675;-72
2020/12/12 07:28:35;;;;;;;5.37;4.00;;;5.90;99.90;;;;;;5085374;28;20531;-72
2020/12/12 07:31:02;;;;;;;7.80;4.60;;;6.00;99.90;;;;;;5072962;28;20477;-73
2020/12/12 07:33:29;;;;;;;5.10;4.23;;;6.00;99.90;;;;;;5085099;28;21289;-69
2020/12/12 07:35:55;;;;;;;8.33;4.60;;;6.00;99.90;;;;;;5070400;28;20454;-71
2020/12/12 07:38:22;;;;;;;6.30;4.80;;;6.00;99.90;;;;;;5070814;28;20477;-71
2020/12/12 07:40:49;;;;;;;6.03;4.70;;;5.90;99.90;;;;;;5068503;28;20711;-69
2020/12/12 07:43:16;;;;;;;6.03;4.43;;;6.00;99.90;;;;;;5070726;28;20468;-70
2020/12/12 07:45:55;;;;;;;6.53;4.40;;;6.10;99.90;;;;;;5071194;28;20528;-71
2020/12/12 07:48:21;;;;;;;4.43;3.37;;;6.10;99.90;;;;;;5087379;28;20440;-71
2020/12/12 07:50:48;;;;;;;5.43;4.33;;;6.00;99.90;;;;;;5091301;28;20487;-70
2020/12/12 07:53:16;;;;;;;5.63;4.10;;;6.00;99.90;;;;;;5090581;28;20458;-71
2020/12/12 07:55:52;;;;;;;5.23;4.10;;;6.10;99.90;;;;;;5085865;28;20448;-71
2020/12/12 07:58:23;;;;;;;5.40;3.90;;;6.10;99.90;;;;;;5070932;28;20556;-70
2020/12/12 08:00:56;;;;;;;5.73;4.23;;;6.10;99.90;;;;;;5069612;28;20454;-71
2020/12/12 08:03:23;;;;;;;6.53;4.33;;;6.10;99.90;;;;;;5070163;28;20444;-71
2020/12/12 08:05:49;;;;;;;5.70;3.80;;;6.50;99.90;;;;;;5069543;28;20449;-71
2020/12/12 08:08:16;;;;;;;11.70;5.90;;;6.30;99.90;;;;;;5070472;28;20449;-71
2020/12/12 08:10:43;;;;;;;5.60;4.40;;;6.20;99.90;;;;;;5070566;28;20539;-71
2020/12/12 08:13:10;;;;;;;4.50;3.40;;;6.10;99.90;;;;;;5077130;28;20458;-71
2020/12/12 08:15:40;;;;;;;7.03;4.73;;;6.10;99.90;;;;;;5083199;28;20474;-71
2020/12/12 08:18:11;;;;;;;5.07;4.10;;;6.10;99.90;;;;;;5069639;28;21015;-71
2020/12/12 08:20:37;;;;;;;5.80;4.60;;;6.10;99.90;;;;;;5085735;28;20532;-71
2020/12/12 08:23:05;;;;;;;4.97;4.03;;;6.20;99.90;;;;;;5085737;28;20456;-71
2020/12/12 08:25:34;;;;;;;4.33;3.90;;;6.10;99.90;;;;;;5069129;28;20506;-71
2020/12/12 08:28:05;;;;;;;12.73;8.27;;;6.10;99.90;;;;;;5069514;28;20829;-71
2020/12/12 08:30:32;;;;;;;4.43;3.63;;;6.20;99.90;;;;;;5069786;28;20565;-71
2020/12/12 08:33:09;;;;;;;4.57;3.53;;;6.10;99.90;;;;;;5068055;28;20449;-70
2020/12/12 08:35:35;;;;;;;6.30;4.03;;;6.10;99.90;;;;;;5069980;28;20448;-71
2020/12/12 08:38:04;;;;;;;6.07;4.43;;;6.10;99.90;;;;;;5082831;28;20807;-71
2020/12/12 08:40:33;;;;;;;5.43;4.67;;;6.20;99.90;;;;;;5078537;28;20460;-71
2020/12/12 08:43:05;;;;;;;4.20;3.47;;;6.30;99.90;;;;;;5074683;28;20438;-71
2020/12/12 08:45:32;;;;;;;4.37;3.77;;;6.20;99.90;;;;;;5079314;28;20495;-72
2020/12/12 08:48:09;;;;;;;5.50;3.97;;;6.10;99.90;;;;;;5087210;28;20984;-71
2020/12/12 08:50:50;;;;;;;6.53;3.33;;;6.10;99.90;;;;;;5085495;28;20539;-71
2020/12/12 08:53:31;;;;;;;5.67;4.10;;;6.10;99.90;;;;;;5081299;28;20520;-72
2020/12/12 08:56:12;;;;;;;5.50;3.53;;;6.10;99.90;;;;;;5085587;28;20519;-71
2020/12/12 08:58:47;;;;;;;5.57;4.23;;;6.20;99.90;;;;;;5071272;28;20488;-74
2020/12/12 09:01:35;;;;;;;5.33;4.13;;;6.10;99.90;;;;;;5074622;28;20491;-72
2020/12/12 09:04:05;;;;;;;9.20;4.40;;;6.10;99.90;;;;;;5075329;28;20477;-73
2020/12/12 09:06:34;;;;;;;4.27;3.43;;;6.20;99.90;;;;;;5084151;28;20553;-74
2020/12/12 09:09:12;;;;;;;5.67;3.73;;;6.30;99.90;;;;;;5075027;28;20488;-73
2020/12/12 09:11:40;;;;;;;5.07;3.73;;;6.30;99.90;;;;;;5072267;28;20469;-73
2020/12/12 09:14:07;;;;;;;12.13;4.20;;;6.40;99.90;;;;;;5085968;28;20538;-74
2020/12/12 09:16:33;;;;;;;4.60;3.50;;;6.40;99.90;;;;;;5085761;28;20532;-74
2020/12/12 09:19:00;;;;;;;5.10;3.37;;;6.40;99.90;;;;;;5077308;28;20469;-74
2020/12/12 09:21:30;;;;;;;5.63;3.90;;;6.40;99.90;;;;;;5067967;28;20450;-75
2020/12/12 09:23:57;;;;;;;5.73;3.70;;;6.50;99.90;;;;;;5073845;28;20483;-71
2020/12/12 09:26:23;;;;;;;5.50;3.40;;;6.60;99.90;;;;;;5078311;28;20519;-73
2020/12/12 09:28:50;;;;;;;4.03;3.63;;;6.60;99.90;;;;;;5082051;28;20630;-71
2020/12/12 09:31:18;;;;;;;5.80;3.90;;;6.60;99.90;;;;;;5070076;28;20531;-74
2020/12/12 09:33:44;;;;;;;5.40;3.80;;;6.70;99.90;;;;;;5071611;28;20529;-74
2020/12/12 09:36:11;;;;;;;5.93;3.60;;;6.90;99.90;;;;;;5070884;28;20536;-74
2020/12/12 09:38:39;;;;;;;3.90;3.40;;;7.00;99.90;;;;;;5071337;28;20494;-75
2020/12/12 09:41:05;;;;;;;4.30;3.90;;;7.00;99.90;;;;;;5070280;28;20471;-74
2020/12/12 09:43:32;;;;;;;4.60;3.37;;;7.10;99.90;;;;;;5071474;28;20524;-75
2020/12/12 09:45:59;;;;;;;4.30;3.40;;;7.20;99.90;;;;;;5070739;28;20530;-75
2020/12/12 09:48:25;;;;;;;5.77;3.87;;;;;;;;;;5070628;28;20528;-71
2020/12/12 09:50:52;;;;;;;5.33;3.30;;;;;;;;;;5070160;28;20563;-71
2020/12/12 09:53:18;;;;;;;4.13;3.33;;;7.20;99.90;;;;;;5088435;28;20455;-70
2020/12/12 09:55:46;;;;;;;4.53;3.00;;;7.30;82.20;;;;;;5079279;28;20557;-71
2020/12/12 09:58:13;;;;;;;3.80;2.80;;;7.40;99.90;;;;;;5071100;28;20441;-72
2020/12/12 10:00:40;;;;;;;4.03;3.40;;;7.20;99.90;;;;;;5070599;28;20540;-72
2020/12/12 10:03:07;;;;;;;6.60;3.77;;;7.20;99.90;;;;;;5069710;28;21010;-72
2020/12/12 10:05:34;;;;;;;3.23;2.87;;;7.30;99.90;;;;;;5071071;28;20538;-72
2020/12/12 10:08:01;;;;;;;20.20;13.17;;;7.30;99.90;;;;;;5069714;28;20445;-72
2020/12/12 10:10:29;;;;;;;4.23;3.07;;;7.30;99.90;;;;;;5068857;28;21162;-72
2020/12/12 10:12:56;;;;;;;7.20;2.93;;;7.40;43.70;;;;;;5069665;28;20544;-72
2020/12/12 10:15:23;;;;;;;3.53;2.57;;;7.50;11.60;;;;;;5083484;28;20464;-71
2020/12/12 10:17:51;;;;;;;3.53;3.03;;;7.50;1.00;;;;;;5085716;28;20440;-71
2020/12/12 10:20:18;;;;;;;5.00;2.57;;;7.40;9.10;;;;;;5070477;28;20444;-72
2020/12/12 10:22:45;;;;;;;3.63;2.53;;;7.50;1.00;;;;;;5070618;28;20454;-70
2020/12/12 10:25:12;;;;;;;2.73;2.33;;;7.50;1.00;;;;;;5069507;28;20525;-70
2020/12/12 10:27:40;;;;;;;8.53;2.50;;;7.50;1.00;;;;;;5070372;28;20969;-71
2020/12/12 10:30:10;;;;;;;3.27;2.37;;;7.50;1.00;;;;;;5069202;28;20488;-70
2020/12/12 10:32:36;;;;;;;4.07;2.83;;;7.60;1.00;;;;;;5070343;28;20478;-70
2020/12/12 10:35:03;;;;;;;3.97;2.57;;;7.80;1.00;;;;;;5069936;28;20517;-69
2020/12/12 10:37:29;;;;;;;3.43;2.07;;;7.70;1.00;;;;;;5073809;28;20536;-70
2020/12/12 10:40:01;;;;;;;3.73;2.50;;;7.80;1.00;;;;;;5073757;28;20532;-70
2020/12/12 10:42:28;;;;;;;3.50;3.10;;;7.80;1.00;;;;;;5074869;28;20445;-70
2020/12/12 10:44:54;;;;;;;3.30;2.57;;;8.00;1.00;;;;;;5074138;28;20524;-70
2020/12/12 10:47:21;;;;;;;2.83;2.57;;;7.90;1.00;;;;;;5074730;28;20473;-70
2020/12/12 10:49:48;;;;;;;4.07;2.77;;;7.80;1.00;;;;;;5074217;28;20575;-70
2020/12/12 10:52:15;;;;;;;3.63;2.97;;;7.90;1.00;;;;;;5074820;28;20542;-70
2020/12/12 10:54:45;;;;;;;4.17;3.20;;;8.00;1.00;;;;;;5074513;28;20524;-70
2020/12/12 10:57:11;;;;;;;2.70;1.70;;;7.80;1.00;;;;;;5074170;28;20488;-70
2020/12/12 10:59:42;;;;;;;2.93;2.40;;;7.80;1.00;;;;;;5074021;28;20444;-70
2020/12/12 11:02:09;;;;;;;2.80;2.13;;;8.00;1.00;;;;;;5073847;28;20706;-70
2020/12/12 11:04:36;;;;;;;4.40;2.93;;;8.10;1.00;;;;;;5074317;28;20540;-70
2020/12/12 11:07:03;;;;;;;5.37;2.47;;;8.10;1.00;;;;;;5073684;28;21008;-70
2020/12/12 11:09:29;;;;;;;3.90;2.27;;;8.20;1.00;;;;;;5073454;28;20572;-70
2020/12/12 11:11:56;;;;;;;3.30;2.40;;;8.30;1.00;;;;;;5073742;28;20933;-70
2020/12/12 11:14:24;;;;;;;2.30;2.10;;;8.10;1.00;;;;;;5073868;28;20516;-70
2020/12/12 11:16:50;;;;;;;1.93;1.80;;;8.10;1.00;;;;;;5072383;28;20449;-69
2020/12/12 11:19:17;;;;;;;1.93;1.73;;;8.10;1.00;;;;;;5072388;28;20885;-70
2020/12/12 11:21:44;;;;;;;3.83;2.23;;;8.10;1.00;;;;;;5085594;28;20502;-71
2020/12/12 11:24:10;;;;;;;3.00;2.37;;;8.20;1.00;;;;;;5072731;28;20468;-70
2020/12/12 11:26:37;;;;;;;3.73;2.30;;;8.20;1.00;;;;;;5073251;28;20536;-71
2020/12/12 11:29:03;;;;;;;8.90;6.90;;;8.20;1.00;;;;;;5077127;28;20508;-70
2020/12/12 11:31:30;;;;;;;1.70;1.60;;;8.20;1.00;;;;;;5094181;28;20520;-70
2020/12/12 11:34:00;;;;;;;2.47;2.03;;;8.20;1.00;;;;;;5074209;28;20506;-69
2020/12/12 11:36:39;;;;;;;2.40;2.20;;;8.20;1.00;;;;;;5072459;28;20433;-69
2020/12/12 11:39:11;;;;;;;3.30;2.37;;;8.20;1.00;;;;;;5073021;28;20426;-69
2020/12/12 11:41:55;;;;;;;2.53;2.00;;;8.30;1.00;;;;;;5071829;28;20449;-69
2020/12/12 11:47:05;;;;;;;7.80;2.00;;;8.30;46.50;;;;;;5072258;28;20450;-69
2020/12/12 11:49:31;;;;;;;2.47;2.27;;;8.20;99.90;;;;;;5072364;28;20550;-70
2020/12/12 11:51:58;;;;;;;2.40;2.20;;;8.30;99.90;;;;;;5076204;28;20499;-69
2020/12/12 11:54:25;;;;;;;2.17;1.97;;;8.30;99.90;;;;;;5072731;28;20987;-70
2020/12/12 11:56:51;;;;;;;2.73;2.27;;;8.30;99.90;;;;;;5060130;28;20529;-69
2020/12/12 11:59:18;;;;;;;4.10;2.60;;;8.30;99.90;;;;;;5066366;28;20496;-69
2020/12/12 12:01:44;;;;;;;5.23;2.20;;;8.40;96.30;;;;;;5069449;28;20536;-69
2020/12/12 12:04:10;;;;;;;4.40;2.70;;;8.40;99.90;;;;;;5070082;28;20544;-69
2020/12/12 12:06:37;;;;;;;3.27;2.50;;;8.80;60.10;;;;;;5068102;28;20552;-69
2020/12/12 12:09:25;;;;;;;2.43;2.00;;;8.80;1.00;;;;;;5069041;28;20465;-69
2020/12/12 12:11:52;;;;;;;3.60;2.17;;;9.20;1.00;;;;;;5069331;28;20457;-69
2020/12/12 12:14:19;;;;;;;3.47;2.87;;;8.90;1.00;;;;;;5070012;28;20486;-69
2020/12/12 12:16:45;;;;;;;3.10;2.27;;;8.90;1.00;;;;;;5070049;28;21046;-69
2020/12/12 12:19:16;;;;;;;2.23;2.03;;;8.80;1.00;;;;;;5069088;28;20934;-69
2020/12/12 12:21:46;;;;;;;3.50;2.70;;;8.70;1.00;;;;;;5070174;28;20548;-69
2020/12/12 12:24:15;;;;;;;3.47;2.07;;;8.60;1.00;;;;;;5069279;28;20445;-69
2020/12/12 12:26:42;;;;;;;3.30;2.30;;;8.70;50.50;;;;;;5070085;28;20461;-69
2020/12/12 12:29:11;;;;;;;2.85;2.50;;;8.80;6.30;;;;;;5068319;28;21042;-69
2020/12/12 12:31:38;;;;;;;3.77;2.97;;;8.70;1.00;;;;;;5068732;28;20846;-69
2020/12/12 12:34:04;;;;;;;2.93;2.27;;;8.70;1.00;;;;;;5068538;28;20857;-70
2020/12/12 12:36:31;;;;;;;2.93;2.40;;;8.70;1.00;;;;;;5069795;28;20446;-69
2020/12/12 12:38:59;;;;;;;3.57;2.50;;;8.70;1.00;;;;;;5075665;28;20527;-69
2020/12/12 12:41:27;;;;;;;3.33;2.20;;;8.60;19.20;;;;;;5090088;28;20535;-69
2020/12/12 12:43:54;;;;;;;2.10;1.90;;;8.60;1.00;;;;;;5072044;28;20537;-69
2020/12/12 12:46:22;;;;;;;3.60;2.70;;;8.50;1.00;;;;;;5069262;28;20445;-69
2020/12/12 12:48:49;;;;;;;2.50;2.30;;;8.50;99.90;;;;;;5069256;28;21092;-69
2020/12/12 12:51:16;;;;;;;2.60;2.23;;;8.50;91.90;;;;;;5069378;28;20938;-69
2020/12/12 12:53:42;;;;;;;2.73;2.53;;;8.50;99.90;;;;;;5069685;28;20491;-69
2020/12/12 12:56:09;;;;;;;4.60;2.70;;;8.60;99.90;;;;;;5082712;28;21248;-69
2020/12/12 12:58:35;;;;;;;2.50;2.13;;;8.50;69.80;;;;;;5072948;28;20452;-69
2020/12/12 13:01:01;;;;;;;2.60;2.30;;;8.50;56.90;;;;;;5066491;28;20950;-68
2020/12/12 13:03:29;;;;;;;2.60;2.17;;;8.50;77.40;;;;;;5067442;28;20437;-69
2020/12/12 13:05:56;;;;;;;4.67;3.27;;;8.50;48.00;;;;;;5066560;28;20971;-68
2020/12/12 13:08:22;;;;;;;4.60;2.80;;;8.60;99.90;;;;;;5069260;28;20435;-69